sensor_id;sensor_type;location;lat;lon;timestamp;P1;durP1;ratioP1;P2;durP2;ratioP2
41333;SDS011;27078;46.428;6.256;2023-05-15T00:00:07;3.10;;;2.47;;
41333;SDS011;27078;46.428;6.256;2023-05-15T00:02:35;4.07;;;3.00;;
41333;SDS011;27078;46.428;6.256;2023-05-15T00:05:01;4.90;;;2.80;;
41333;SDS011;27078;46.428;6.256;2023-05-15T00:07:28;4.18;;;2.70;;
41333;SDS011;27078;46.428;6.256;2023-05-15T00:09:53;4.13;;;2.30;;
41333;SDS011;27078;46.428;6.256;2023-05-15T00:12:19;3.28;;;2.40;;
41333;SDS011;27078;46.428;6.256;2023-05-15T00:14:44;3.33;;;2.45;;
41333;SDS011;27078;46.428;6.256;2023-05-15T00:17:10;3.15;;;2.03;;
41333;SDS011;27078;46.428;6.256;2023-05-15T00:19:36;2.72;;;2.17;;
41333;SDS011;27078;46.428;6.256;2023-05-15T00:22:01;3.45;;;1.95;;
41333;SDS011;27078;46.428;6.256;2023-05-15T00:24:27;3.45;;;2.03;;
41333;SDS011;27078;46.428;6.256;2023-05-15T00:26:52;2.67;;;2.10;;
41333;SDS011;27078;46.428;6.256;2023-05-15T00:29:17;3.05;;;2.28;;
41333;SDS011;27078;46.428;6.256;2023-05-15T00:31:43;3.22;;;2.00;;
41333;SDS011;27078;46.428;6.256;2023-05-15T00:34:08;3.63;;;2.22;;
41333;SDS011;27078;46.428;6.256;2023-05-15T00:36:33;4.53;;;2.53;;
41333;SDS011;27078;46.428;6.256;2023-05-15T00:38:59;2.70;;;2.10;;
41333;SDS011;27078;46.428;6.256;2023-05-15T00:41:24;4.40;;;2.35;;
41333;SDS011;27078;46.428;6.256;2023-05-15T00:43:52;4.80;;;2.30;;
41333;SDS011;27078;46.428;6.256;2023-05-15T00:46:19;3.47;;;2.08;;
41333;SDS011;27078;46.428;6.256;2023-05-15T00:48:46;3.72;;;2.22;;
41333;SDS011;27078;46.428;6.256;2023-05-15T00:51:13;3.58;;;2.10;;
41333;SDS011;27078;46.428;6.256;2023-05-15T00:53:39;3.00;;;2.10;;
41333;SDS011;27078;46.428;6.256;2023-05-15T00:56:06;3.88;;;2.35;;
41333;SDS011;27078;46.428;6.256;2023-05-15T00:58:33;3.83;;;2.42;;
41333;SDS011;27078;46.428;6.256;2023-05-15T01:01:00;3.90;;;2.60;;
41333;SDS011;27078;46.428;6.256;2023-05-15T01:03:27;3.63;;;2.85;;
41333;SDS011;27078;46.428;6.256;2023-05-15T01:05:52;4.55;;;2.92;;
41333;SDS011;27078;46.428;6.256;2023-05-15T01:10:58;4.22;;;3.10;;
41333;SDS011;27078;46.428;6.256;2023-05-15T01:13:26;4.47;;;2.80;;
41333;SDS011;27078;46.428;6.256;2023-05-15T01:15:53;3.30;;;3.00;;
41333;SDS011;27078;46.428;6.256;2023-05-15T01:18:19;4.03;;;2.65;;
41333;SDS011;27078;46.428;6.256;2023-05-15T01:23:22;3.30;;;2.42;;
41333;SDS011;27078;46.428;6.256;2023-05-15T01:28:47;3.53;;;2.20;;
41333;SDS011;27078;46.428;6.256;2023-05-15T01:31:21;3.28;;;2.60;;
41333;SDS011;27078;46.428;6.256;2023-05-15T01:33:52;3.28;;;2.63;;
41333;SDS011;27078;46.428;6.256;2023-05-15T01:36:29;3.85;;;2.60;;
41333;SDS011;27078;46.428;6.256;2023-05-15T01:39:10;5.88;;;2.50;;
41333;SDS011;27078;46.428;6.256;2023-05-15T01:41:44;7.20;;;2.90;;
41333;SDS011;27078;46.428;6.256;2023-05-15T01:44:24;5.13;;;3.05;;
41333;SDS011;27078;46.428;6.256;2023-05-15T01:46:54;4.50;;;2.95;;
41333;SDS011;27078;46.428;6.256;2023-05-15T01:49:23;4.50;;;3.03;;
41333;SDS011;27078;46.428;6.256;2023-05-15T01:51:54;4.05;;;3.15;;
41333;SDS011;27078;46.428;6.256;2023-05-15T01:54:26;5.00;;;3.40;;
41333;SDS011;27078;46.428;6.256;2023-05-15T01:56:53;5.10;;;3.28;;
41333;SDS011;27078;46.428;6.256;2023-05-15T01:59:21;4.05;;;3.30;;
41333;SDS011;27078;46.428;6.256;2023-05-15T02:01:47;4.47;;;3.13;;
41333;SDS011;27078;46.428;6.256;2023-05-15T02:04:14;5.25;;;3.20;;
41333;SDS011;27078;46.428;6.256;2023-05-15T02:06:41;4.35;;;3.20;;
41333;SDS011;27078;46.428;6.256;2023-05-15T02:09:08;4.93;;;3.28;;
41333;SDS011;27078;46.428;6.256;2023-05-15T02:11:34;4.13;;;2.90;;
41333;SDS011;27078;46.428;6.256;2023-05-15T02:14:01;4.78;;;3.50;;
41333;SDS011;27078;46.428;6.256;2023-05-15T02:16:28;4.25;;;3.35;;
41333;SDS011;27078;46.428;6.256;2023-05-15T02:18:53;4.88;;;3.28;;
41333;SDS011;27078;46.428;6.256;2023-05-15T02:21:19;4.22;;;3.20;;
41333;SDS011;27078;46.428;6.256;2023-05-15T02:23:44;6.15;;;3.53;;
41333;SDS011;27078;46.428;6.256;2023-05-15T02:26:13;6.57;;;3.53;;
41333;SDS011;27078;46.428;6.256;2023-05-15T02:28:40;4.28;;;3.47;;
41333;SDS011;27078;46.428;6.256;2023-05-15T02:31:25;4.38;;;3.35;;
41333;SDS011;27078;46.428;6.256;2023-05-15T02:34:22;4.22;;;3.33;;
41333;SDS011;27078;46.428;6.256;2023-05-15T02:36:56;4.15;;;3.35;;
41333;SDS011;27078;46.428;6.256;2023-05-15T02:39:24;4.85;;;3.42;;
41333;SDS011;27078;46.428;6.256;2023-05-15T02:41:51;5.28;;;3.58;;
41333;SDS011;27078;46.428;6.256;2023-05-15T02:44:17;5.03;;;3.90;;
41333;SDS011;27078;46.428;6.256;2023-05-15T02:46:44;4.40;;;3.40;;
41333;SDS011;27078;46.428;6.256;2023-05-15T02:49:12;6.72;;;3.53;;
41333;SDS011;27078;46.428;6.256;2023-05-15T02:51:38;5.00;;;3.58;;
41333;SDS011;27078;46.428;6.256;2023-05-15T02:54:04;4.82;;;3.45;;
41333;SDS011;27078;46.428;6.256;2023-05-15T02:56:30;5.50;;;3.72;;
41333;SDS011;27078;46.428;6.256;2023-05-15T02:58:56;5.03;;;3.40;;
41333;SDS011;27078;46.428;6.256;2023-05-15T03:01:21;4.18;;;3.38;;
41333;SDS011;27078;46.428;6.256;2023-05-15T03:03:46;5.35;;;3.58;;
41333;SDS011;27078;46.428;6.256;2023-05-15T03:06:12;5.50;;;3.60;;
41333;SDS011;27078;46.428;6.256;2023-05-15T03:08:37;5.15;;;3.80;;
41333;SDS011;27078;46.428;6.256;2023-05-15T03:11:02;5.70;;;3.80;;
41333;SDS011;27078;46.428;6.256;2023-05-15T03:13:28;4.65;;;3.53;;
41333;SDS011;27078;46.428;6.256;2023-05-15T03:15:53;4.95;;;3.55;;
41333;SDS011;27078;46.428;6.256;2023-05-15T03:18:18;4.95;;;3.47;;
41333;SDS011;27078;46.428;6.256;2023-05-15T03:20:45;8.23;;;3.60;;
41333;SDS011;27078;46.428;6.256;2023-05-15T03:23:12;4.43;;;3.75;;
41333;SDS011;27078;46.428;6.256;2023-05-15T03:25:37;6.10;;;3.58;;
41333;SDS011;27078;46.428;6.256;2023-05-15T03:28:02;5.28;;;3.65;;
41333;SDS011;27078;46.428;6.256;2023-05-15T03:30:28;5.28;;;3.50;;
41333;SDS011;27078;46.428;6.256;2023-05-15T03:32:53;5.35;;;3.65;;
41333;SDS011;27078;46.428;6.256;2023-05-15T03:35:19;4.43;;;3.72;;
41333;SDS011;27078;46.428;6.256;2023-05-15T03:37:45;5.38;;;3.85;;
41333;SDS011;27078;46.428;6.256;2023-05-15T03:40:10;4.97;;;4.00;;
41333;SDS011;27078;46.428;6.256;2023-05-15T03:42:36;5.63;;;3.70;;
41333;SDS011;27078;46.428;6.256;2023-05-15T03:45:01;6.35;;;3.97;;
41333;SDS011;27078;46.428;6.256;2023-05-15T03:47:27;5.13;;;3.80;;
41333;SDS011;27078;46.428;6.256;2023-05-15T03:49:52;5.60;;;3.97;;
41333;SDS011;27078;46.428;6.256;2023-05-15T03:52:17;6.03;;;3.83;;
41333;SDS011;27078;46.428;6.256;2023-05-15T03:54:43;4.60;;;4.10;;
41333;SDS011;27078;46.428;6.256;2023-05-15T03:57:08;5.78;;;3.80;;
41333;SDS011;27078;46.428;6.256;2023-05-15T03:59:33;5.95;;;4.25;;
41333;SDS011;27078;46.428;6.256;2023-05-15T04:01:59;5.28;;;4.07;;
41333;SDS011;27078;46.428;6.256;2023-05-15T04:04:24;6.70;;;3.83;;
41333;SDS011;27078;46.428;6.256;2023-05-15T04:06:50;5.32;;;4.00;;
41333;SDS011;27078;46.428;6.256;2023-05-15T04:09:15;5.18;;;3.97;;
41333;SDS011;27078;46.428;6.256;2023-05-15T04:11:41;5.45;;;4.05;;
41333;SDS011;27078;46.428;6.256;2023-05-15T04:14:06;7.32;;;4.35;;
41333;SDS011;27078;46.428;6.256;2023-05-15T04:16:31;8.27;;;4.38;;
41333;SDS011;27078;46.428;6.256;2023-05-15T04:18:57;6.47;;;4.10;;
41333;SDS011;27078;46.428;6.256;2023-05-15T04:21:22;5.40;;;4.13;;
41333;SDS011;27078;46.428;6.256;2023-05-15T04:23:47;6.95;;;4.20;;
41333;SDS011;27078;46.428;6.256;2023-05-15T04:26:13;5.60;;;4.30;;
41333;SDS011;27078;46.428;6.256;2023-05-15T04:28:38;5.10;;;4.03;;
41333;SDS011;27078;46.428;6.256;2023-05-15T04:31:04;6.03;;;3.83;;
41333;SDS011;27078;46.428;6.256;2023-05-15T04:33:29;6.85;;;4.60;;
41333;SDS011;27078;46.428;6.256;2023-05-15T04:35:55;5.80;;;4.15;;
41333;SDS011;27078;46.428;6.256;2023-05-15T04:38:20;5.07;;;3.90;;
41333;SDS011;27078;46.428;6.256;2023-05-15T04:40:46;7.85;;;4.07;;
41333;SDS011;27078;46.428;6.256;2023-05-15T04:43:11;5.25;;;3.95;;
41333;SDS011;27078;46.428;6.256;2023-05-15T04:45:36;5.45;;;4.28;;
41333;SDS011;27078;46.428;6.256;2023-05-15T04:48:02;5.50;;;4.07;;
41333;SDS011;27078;46.428;6.256;2023-05-15T04:50:28;4.45;;;3.72;;
41333;SDS011;27078;46.428;6.256;2023-05-15T04:52:53;6.43;;;4.05;;
41333;SDS011;27078;46.428;6.256;2023-05-15T04:55:19;6.80;;;4.10;;
41333;SDS011;27078;46.428;6.256;2023-05-15T04:57:48;5.78;;;4.07;;
41333;SDS011;27078;46.428;6.256;2023-05-15T05:00:14;5.35;;;3.88;;
41333;SDS011;27078;46.428;6.256;2023-05-15T05:02:40;5.15;;;3.95;;
41333;SDS011;27078;46.428;6.256;2023-05-15T05:05:08;6.60;;;4.30;;
41333;SDS011;27078;46.428;6.256;2023-05-15T05:07:33;5.18;;;4.13;;
41333;SDS011;27078;46.428;6.256;2023-05-15T05:09:59;5.07;;;4.18;;
41333;SDS011;27078;46.428;6.256;2023-05-15T05:12:27;5.13;;;4.20;;
41333;SDS011;27078;46.428;6.256;2023-05-15T05:14:53;5.65;;;4.28;;
41333;SDS011;27078;46.428;6.256;2023-05-15T05:17:19;6.57;;;4.30;;
41333;SDS011;27078;46.428;6.256;2023-05-15T05:19:48;6.40;;;4.43;;
41333;SDS011;27078;46.428;6.256;2023-05-15T05:22:13;6.18;;;4.70;;
41333;SDS011;27078;46.428;6.256;2023-05-15T05:24:45;7.57;;;4.78;;
41333;SDS011;27078;46.428;6.256;2023-05-15T05:27:11;7.30;;;5.15;;
41333;SDS011;27078;46.428;6.256;2023-05-15T05:29:39;8.77;;;5.00;;
41333;SDS011;27078;46.428;6.256;2023-05-15T05:32:05;6.35;;;4.70;;
41333;SDS011;27078;46.428;6.256;2023-05-15T05:34:31;6.97;;;5.03;;
41333;SDS011;27078;46.428;6.256;2023-05-15T05:37:02;8.30;;;4.90;;
41333;SDS011;27078;46.428;6.256;2023-05-15T05:39:33;8.13;;;4.80;;
41333;SDS011;27078;46.428;6.256;2023-05-15T05:41:58;7.45;;;5.20;;
41333;SDS011;27078;46.428;6.256;2023-05-15T05:44:24;7.75;;;4.75;;
41333;SDS011;27078;46.428;6.256;2023-05-15T05:46:50;9.20;;;5.03;;
41333;SDS011;27078;46.428;6.256;2023-05-15T05:49:16;8.40;;;5.00;;
41333;SDS011;27078;46.428;6.256;2023-05-15T05:51:43;7.13;;;5.00;;
41333;SDS011;27078;46.428;6.256;2023-05-15T05:54:09;5.50;;;4.60;;
41333;SDS011;27078;46.428;6.256;2023-05-15T05:56:37;7.43;;;4.65;;
41333;SDS011;27078;46.428;6.256;2023-05-15T05:59:10;7.45;;;4.85;;
41333;SDS011;27078;46.428;6.256;2023-05-15T06:01:35;5.95;;;4.40;;
41333;SDS011;27078;46.428;6.256;2023-05-15T06:04:01;6.68;;;4.95;;
41333;SDS011;27078;46.428;6.256;2023-05-15T06:06:29;5.50;;;4.50;;
41333;SDS011;27078;46.428;6.256;2023-05-15T06:08:54;5.43;;;4.00;;
41333;SDS011;27078;46.428;6.256;2023-05-15T06:11:20;6.55;;;4.13;;
41333;SDS011;27078;46.428;6.256;2023-05-15T06:13:48;5.63;;;4.05;;
41333;SDS011;27078;46.428;6.256;2023-05-15T06:16:13;4.28;;;3.50;;
41333;SDS011;27078;46.428;6.256;2023-05-15T06:18:39;4.50;;;3.42;;
41333;SDS011;27078;46.428;6.256;2023-05-15T06:21:07;5.13;;;3.92;;
41333;SDS011;27078;46.428;6.256;2023-05-15T06:23:50;4.28;;;3.58;;
41333;SDS011;27078;46.428;6.256;2023-05-15T06:26:15;5.88;;;3.38;;
41333;SDS011;27078;46.428;6.256;2023-05-15T06:28:43;6.35;;;3.30;;
41333;SDS011;27078;46.428;6.256;2023-05-15T06:31:09;3.95;;;3.13;;
41333;SDS011;27078;46.428;6.256;2023-05-15T06:33:34;4.18;;;3.35;;
41333;SDS011;27078;46.428;6.256;2023-05-15T06:36:00;4.45;;;3.50;;
41333;SDS011;27078;46.428;6.256;2023-05-15T06:38:29;4.28;;;3.60;;
41333;SDS011;27078;46.428;6.256;2023-05-15T06:40:54;5.72;;;3.45;;
41333;SDS011;27078;46.428;6.256;2023-05-15T06:43:19;5.40;;;3.28;;
41333;SDS011;27078;46.428;6.256;2023-05-15T06:45:45;5.00;;;3.35;;
41333;SDS011;27078;46.428;6.256;2023-05-15T06:48:10;4.05;;;3.25;;
41333;SDS011;27078;46.428;6.256;2023-05-15T06:50:44;5.15;;;3.33;;
41333;SDS011;27078;46.428;6.256;2023-05-15T06:53:09;4.68;;;3.00;;
41333;SDS011;27078;46.428;6.256;2023-05-15T06:55:47;4.47;;;3.20;;
41333;SDS011;27078;46.428;6.256;2023-05-15T06:58:12;4.13;;;3.20;;
41333;SDS011;27078;46.428;6.256;2023-05-15T07:00:40;4.82;;;3.33;;
41333;SDS011;27078;46.428;6.256;2023-05-15T07:03:33;4.78;;;2.95;;
41333;SDS011;27078;46.428;6.256;2023-05-15T07:05:58;4.43;;;3.10;;
41333;SDS011;27078;46.428;6.256;2023-05-15T07:08:26;5.35;;;2.97;;
41333;SDS011;27078;46.428;6.256;2023-05-15T07:13:51;5.10;;;2.95;;
41333;SDS011;27078;46.428;6.256;2023-05-15T07:16:25;4.00;;;2.72;;
41333;SDS011;27078;46.428;6.256;2023-05-15T07:18:56;4.43;;;3.03;;
41333;SDS011;27078;46.428;6.256;2023-05-15T07:24:23;4.07;;;2.75;;
41333;SDS011;27078;46.428;6.256;2023-05-15T07:27:20;5.10;;;2.75;;
41333;SDS011;27078;46.428;6.256;2023-05-15T07:30:05;5.97;;;3.28;;
41333;SDS011;27078;46.428;6.256;2023-05-15T07:32:42;4.22;;;3.00;;
41333;SDS011;27078;46.428;6.256;2023-05-15T07:35:23;4.70;;;3.30;;
41333;SDS011;27078;46.428;6.256;2023-05-15T07:37:58;4.70;;;3.00;;
41333;SDS011;27078;46.428;6.256;2023-05-15T07:40:32;3.95;;;3.00;;
41333;SDS011;27078;46.428;6.256;2023-05-15T07:43:00;4.10;;;3.00;;
41333;SDS011;27078;46.428;6.256;2023-05-15T07:45:29;3.00;;;2.70;;
41333;SDS011;27078;46.428;6.256;2023-05-15T07:47:57;5.75;;;2.70;;
41333;SDS011;27078;46.428;6.256;2023-05-15T07:50:38;3.55;;;2.70;;
41333;SDS011;27078;46.428;6.256;2023-05-15T07:53:15;5.63;;;3.10;;
41333;SDS011;27078;46.428;6.256;2023-05-15T07:55:49;3.63;;;2.55;;
41333;SDS011;27078;46.428;6.256;2023-05-15T07:58:16;2.92;;;2.60;;
41333;SDS011;27078;46.428;6.256;2023-05-15T08:00:41;5.15;;;2.75;;
41333;SDS011;27078;46.428;6.256;2023-05-15T08:03:18;3.70;;;2.72;;
41333;SDS011;27078;46.428;6.256;2023-05-15T08:05:43;4.45;;;2.80;;
41333;SDS011;27078;46.428;6.256;2023-05-15T08:08:09;4.15;;;2.60;;
41333;SDS011;27078;46.428;6.256;2023-05-15T08:10:34;2.95;;;2.50;;
41333;SDS011;27078;46.428;6.256;2023-05-15T08:13:03;2.75;;;2.45;;
41333;SDS011;27078;46.428;6.256;2023-05-15T08:15:29;3.50;;;2.40;;
41333;SDS011;27078;46.428;6.256;2023-05-15T08:17:54;2.80;;;2.20;;
41333;SDS011;27078;46.428;6.256;2023-05-15T08:20:19;2.72;;;2.20;;
41333;SDS011;27078;46.428;6.256;2023-05-15T08:22:45;5.40;;;2.33;;
41333;SDS011;27078;46.428;6.256;2023-05-15T08:25:10;2.65;;;2.17;;
41333;SDS011;27078;46.428;6.256;2023-05-15T08:27:35;2.92;;;2.25;;
41333;SDS011;27078;46.428;6.256;2023-05-15T08:30:01;3.20;;;2.67;;
41333;SDS011;27078;46.428;6.256;2023-05-15T08:32:26;3.17;;;2.28;;
41333;SDS011;27078;46.428;6.256;2023-05-15T08:34:52;3.83;;;2.80;;
41333;SDS011;27078;46.428;6.256;2023-05-15T08:37:17;3.75;;;2.70;;
41333;SDS011;27078;46.428;6.256;2023-05-15T08:39:42;3.95;;;2.72;;
41333;SDS011;27078;46.428;6.256;2023-05-15T08:44:38;3.38;;;2.75;;
41333;SDS011;27078;46.428;6.256;2023-05-15T08:47:05;3.78;;;2.58;;
41333;SDS011;27078;46.428;6.256;2023-05-15T08:52:11;4.03;;;2.55;;
41333;SDS011;27078;46.428;6.256;2023-05-15T08:54:37;7.22;;;2.55;;
41333;SDS011;27078;46.428;6.256;2023-05-15T08:57:04;3.50;;;2.80;;
41333;SDS011;27078;46.428;6.256;2023-05-15T08:59:31;5.13;;;3.17;;
41333;SDS011;27078;46.428;6.256;2023-05-15T09:01:56;4.32;;;2.75;;
41333;SDS011;27078;46.428;6.256;2023-05-15T09:04:22;3.88;;;2.25;;
41333;SDS011;27078;46.428;6.256;2023-05-15T09:06:47;2.88;;;1.92;;
41333;SDS011;27078;46.428;6.256;2023-05-15T09:09:13;2.90;;;1.75;;
41333;SDS011;27078;46.428;6.256;2023-05-15T09:11:43;6.18;;;2.35;;
41333;SDS011;27078;46.428;6.256;2023-05-15T09:14:09;2.95;;;2.03;;
41333;SDS011;27078;46.428;6.256;2023-05-15T09:16:35;4.05;;;2.20;;
41333;SDS011;27078;46.428;6.256;2023-05-15T09:19:01;4.55;;;2.50;;
41333;SDS011;27078;46.428;6.256;2023-05-15T09:21:27;3.70;;;2.38;;
41333;SDS011;27078;46.428;6.256;2023-05-15T09:24:14;4.78;;;2.65;;
41333;SDS011;27078;46.428;6.256;2023-05-15T09:26:44;5.80;;;2.30;;
41333;SDS011;27078;46.428;6.256;2023-05-15T09:29:10;3.35;;;2.17;;
41333;SDS011;27078;46.428;6.256;2023-05-15T09:31:36;3.88;;;2.42;;
41333;SDS011;27078;46.428;6.256;2023-05-15T09:34:01;2.47;;;2.00;;
41333;SDS011;27078;46.428;6.256;2023-05-15T09:36:29;3.55;;;2.20;;
41333;SDS011;27078;46.428;6.256;2023-05-15T09:38:57;3.17;;;2.38;;
41333;SDS011;27078;46.428;6.256;2023-05-15T09:41:24;4.53;;;3.00;;
41333;SDS011;27078;46.428;6.256;2023-05-15T09:43:50;4.40;;;2.72;;
41333;SDS011;27078;46.428;6.256;2023-05-15T09:46:16;4.35;;;2.45;;
41333;SDS011;27078;46.428;6.256;2023-05-15T09:48:41;4.10;;;2.60;;
41333;SDS011;27078;46.428;6.256;2023-05-15T09:51:13;3.78;;;2.53;;
41333;SDS011;27078;46.428;6.256;2023-05-15T09:53:40;5.55;;;2.78;;
41333;SDS011;27078;46.428;6.256;2023-05-15T09:56:07;3.35;;;2.30;;
41333;SDS011;27078;46.428;6.256;2023-05-15T09:58:33;3.70;;;2.53;;
41333;SDS011;27078;46.428;6.256;2023-05-15T10:00:59;3.60;;;2.53;;
41333;SDS011;27078;46.428;6.256;2023-05-15T10:03:26;5.03;;;3.28;;
41333;SDS011;27078;46.428;6.256;2023-05-15T10:05:58;4.00;;;3.22;;
41333;SDS011;27078;46.428;6.256;2023-05-15T10:08:25;3.70;;;3.10;;
41333;SDS011;27078;46.428;6.256;2023-05-15T10:10:52;4.03;;;3.53;;
41333;SDS011;27078;46.428;6.256;2023-05-15T10:13:18;7.38;;;4.57;;
41333;SDS011;27078;46.428;6.256;2023-05-15T10:15:46;5.85;;;4.40;;
41333;SDS011;27078;46.428;6.256;2023-05-15T10:18:13;16.27;;;8.23;;
41333;SDS011;27078;46.428;6.256;2023-05-15T10:20:41;7.15;;;4.55;;
41333;SDS011;27078;46.428;6.256;2023-05-15T10:23:06;6.35;;;4.43;;
41333;SDS011;27078;46.428;6.256;2023-05-15T10:25:37;8.63;;;4.28;;
41333;SDS011;27078;46.428;6.256;2023-05-15T10:28:07;5.05;;;4.10;;
41333;SDS011;27078;46.428;6.256;2023-05-15T10:30:34;7.47;;;4.68;;
41333;SDS011;27078;46.428;6.256;2023-05-15T10:33:00;5.78;;;4.47;;
41333;SDS011;27078;46.428;6.256;2023-05-15T10:35:28;6.55;;;5.07;;
41333;SDS011;27078;46.428;6.256;2023-05-15T10:37:54;6.40;;;5.35;;
41333;SDS011;27078;46.428;6.256;2023-05-15T10:40:21;7.13;;;5.03;;
41333;SDS011;27078;46.428;6.256;2023-05-15T10:42:47;6.82;;;5.00;;
41333;SDS011;27078;46.428;6.256;2023-05-15T10:45:13;7.65;;;5.45;;
41333;SDS011;27078;46.428;6.256;2023-05-15T10:47:39;9.48;;;6.13;;
41333;SDS011;27078;46.428;6.256;2023-05-15T10:50:06;7.30;;;5.40;;
41333;SDS011;27078;46.428;6.256;2023-05-15T10:52:33;7.10;;;5.55;;
41333;SDS011;27078;46.428;6.256;2023-05-15T10:55:00;8.35;;;5.63;;
41333;SDS011;27078;46.428;6.256;2023-05-15T10:57:28;7.07;;;5.97;;
41333;SDS011;27078;46.428;6.256;2023-05-15T10:59:54;8.27;;;6.30;;
41333;SDS011;27078;46.428;6.256;2023-05-15T11:02:24;9.32;;;6.30;;
41333;SDS011;27078;46.428;6.256;2023-05-15T11:04:56;7.78;;;6.13;;
41333;SDS011;27078;46.428;6.256;2023-05-15T11:07:23;8.00;;;5.95;;
41333;SDS011;27078;46.428;6.256;2023-05-15T11:09:50;9.45;;;6.50;;
41333;SDS011;27078;46.428;6.256;2023-05-15T11:12:16;10.43;;;7.68;;
41333;SDS011;27078;46.428;6.256;2023-05-15T11:14:42;10.55;;;7.75;;
41333;SDS011;27078;46.428;6.256;2023-05-15T11:17:30;10.65;;;8.00;;
41333;SDS011;27078;46.428;6.256;2023-05-15T11:19:57;11.07;;;8.20;;
41333;SDS011;27078;46.428;6.256;2023-05-15T11:22:27;15.57;;;8.40;;
41333;SDS011;27078;46.428;6.256;2023-05-15T11:25:03;11.25;;;8.80;;
41333;SDS011;27078;46.428;6.256;2023-05-15T11:27:30;10.55;;;8.02;;
41333;SDS011;27078;46.428;6.256;2023-05-15T11:35:18;16.25;;;8.32;;
41333;SDS011;27078;46.428;6.256;2023-05-15T11:37:56;12.00;;;8.50;;
41333;SDS011;27078;46.428;6.256;2023-05-15T11:40:22;13.02;;;8.90;;
41333;SDS011;27078;46.428;6.256;2023-05-15T11:42:59;11.75;;;7.13;;
41333;SDS011;27078;46.428;6.256;2023-05-15T11:45:33;10.07;;;6.85;;
41333;SDS011;27078;46.428;6.256;2023-05-15T11:48:00;8.60;;;6.00;;
41333;SDS011;27078;46.428;6.256;2023-05-15T11:50:28;8.00;;;5.95;;
41333;SDS011;27078;46.428;6.256;2023-05-15T11:52:54;8.32;;;6.13;;
41333;SDS011;27078;46.428;6.256;2023-05-15T11:55:20;7.38;;;5.72;;
41333;SDS011;27078;46.428;6.256;2023-05-15T11:57:46;8.48;;;5.60;;
41333;SDS011;27078;46.428;6.256;2023-05-15T12:00:12;5.78;;;4.90;;
41333;SDS011;27078;46.428;6.256;2023-05-15T12:02:38;6.97;;;4.78;;
41333;SDS011;27078;46.428;6.256;2023-05-15T12:05:06;9.10;;;5.60;;
41333;SDS011;27078;46.428;6.256;2023-05-15T12:07:51;7.70;;;5.90;;
41333;SDS011;27078;46.428;6.256;2023-05-15T12:10:16;5.68;;;5.03;;
41333;SDS011;27078;46.428;6.256;2023-05-15T12:12:42;7.72;;;5.20;;
41333;SDS011;27078;46.428;6.256;2023-05-15T12:15:09;6.97;;;5.38;;
41333;SDS011;27078;46.428;6.256;2023-05-15T12:17:36;7.60;;;4.90;;
41333;SDS011;27078;46.428;6.256;2023-05-15T12:20:02;6.80;;;5.07;;
41333;SDS011;27078;46.428;6.256;2023-05-15T12:22:34;7.03;;;5.40;;
41333;SDS011;27078;46.428;6.256;2023-05-15T12:25:04;7.57;;;5.85;;
41333;SDS011;27078;46.428;6.256;2023-05-15T12:27:31;9.18;;;6.10;;
41333;SDS011;27078;46.428;6.256;2023-05-15T12:29:56;7.30;;;5.65;;
41333;SDS011;27078;46.428;6.256;2023-05-15T12:32:22;7.13;;;5.35;;
41333;SDS011;27078;46.428;6.256;2023-05-15T12:34:48;7.90;;;5.68;;
41333;SDS011;27078;46.428;6.256;2023-05-15T12:37:13;6.65;;;5.00;;
41333;SDS011;27078;46.428;6.256;2023-05-15T12:39:52;5.68;;;4.70;;
41333;SDS011;27078;46.428;6.256;2023-05-15T12:42:19;7.20;;;4.57;;
41333;SDS011;27078;46.428;6.256;2023-05-15T12:44:44;6.10;;;5.18;;
41333;SDS011;27078;46.428;6.256;2023-05-15T12:47:12;6.38;;;5.40;;
41333;SDS011;27078;46.428;6.256;2023-05-15T12:49:39;7.95;;;5.63;;
41333;SDS011;27078;46.428;6.256;2023-05-15T12:52:06;6.72;;;5.50;;
41333;SDS011;27078;46.428;6.256;2023-05-15T12:54:38;7.60;;;5.43;;
41333;SDS011;27078;46.428;6.256;2023-05-15T12:57:05;6.75;;;5.35;;
41333;SDS011;27078;46.428;6.256;2023-05-15T12:59:32;6.55;;;5.03;;
41333;SDS011;27078;46.428;6.256;2023-05-15T13:01:57;6.68;;;5.22;;
41333;SDS011;27078;46.428;6.256;2023-05-15T13:04:23;6.55;;;5.38;;
41333;SDS011;27078;46.428;6.256;2023-05-15T13:06:51;7.97;;;5.47;;
41333;SDS011;27078;46.428;6.256;2023-05-15T13:09:20;5.95;;;4.70;;
41333;SDS011;27078;46.428;6.256;2023-05-15T13:11:47;8.52;;;4.45;;
41333;SDS011;27078;46.428;6.256;2023-05-15T13:14:15;8.80;;;4.70;;
41333;SDS011;27078;46.428;6.256;2023-05-15T13:16:41;8.68;;;4.60;;
41333;SDS011;27078;46.428;6.256;2023-05-15T13:19:08;5.63;;;4.60;;
41333;SDS011;27078;46.428;6.256;2023-05-15T13:21:34;6.22;;;4.50;;
41333;SDS011;27078;46.428;6.256;2023-05-15T13:24:10;5.90;;;4.63;;
41333;SDS011;27078;46.428;6.256;2023-05-15T13:26:35;7.22;;;5.03;;
41333;SDS011;27078;46.428;6.256;2023-05-15T13:29:01;7.85;;;5.32;;
41333;SDS011;27078;46.428;6.256;2023-05-15T13:31:29;8.02;;;5.32;;
41333;SDS011;27078;46.428;6.256;2023-05-15T13:33:54;5.63;;;4.72;;
41333;SDS011;27078;46.428;6.256;2023-05-15T13:36:20;6.55;;;4.88;;
41333;SDS011;27078;46.428;6.256;2023-05-15T13:38:45;6.55;;;4.97;;
41333;SDS011;27078;46.428;6.256;2023-05-15T13:41:10;7.20;;;5.05;;
41333;SDS011;27078;46.428;6.256;2023-05-15T13:43:36;6.00;;;4.82;;
41333;SDS011;27078;46.428;6.256;2023-05-15T13:46:01;6.53;;;4.95;;
41333;SDS011;27078;46.428;6.256;2023-05-15T13:48:26;6.50;;;4.75;;
41333;SDS011;27078;46.428;6.256;2023-05-15T13:50:52;7.07;;;5.15;;
41333;SDS011;27078;46.428;6.256;2023-05-15T13:53:17;6.63;;;5.03;;
41333;SDS011;27078;46.428;6.256;2023-05-15T13:55:43;6.82;;;5.05;;
41333;SDS011;27078;46.428;6.256;2023-05-15T13:58:10;7.15;;;4.70;;
41333;SDS011;27078;46.428;6.256;2023-05-15T14:00:40;4.40;;;3.38;;
41333;SDS011;27078;46.428;6.256;2023-05-15T14:03:07;3.95;;;3.40;;
41333;SDS011;27078;46.428;6.256;2023-05-15T14:05:32;6.88;;;4.28;;
41333;SDS011;27078;46.428;6.256;2023-05-15T14:07:58;9.50;;;3.92;;
41333;SDS011;27078;46.428;6.256;2023-05-15T14:10:24;7.18;;;4.45;;
41333;SDS011;27078;46.428;6.256;2023-05-15T14:12:50;8.85;;;5.05;;
41333;SDS011;27078;46.428;6.256;2023-05-15T14:15:20;13.32;;;6.03;;
41333;SDS011;27078;46.428;6.256;2023-05-15T14:18:17;10.20;;;5.60;;
41333;SDS011;27078;46.428;6.256;2023-05-15T14:20:54;9.27;;;6.35;;
41333;SDS011;27078;46.428;6.256;2023-05-15T14:23:20;11.75;;;6.70;;
41333;SDS011;27078;46.428;6.256;2023-05-15T14:25:45;12.10;;;6.70;;
41333;SDS011;27078;46.428;6.256;2023-05-15T14:28:10;14.20;;;7.40;;
41333;SDS011;27078;46.428;6.256;2023-05-15T14:30:36;9.60;;;6.50;;
41333;SDS011;27078;46.428;6.256;2023-05-15T14:33:02;7.82;;;6.07;;
41333;SDS011;27078;46.428;6.256;2023-05-15T14:35:28;7.60;;;5.25;;
41333;SDS011;27078;46.428;6.256;2023-05-15T14:37:54;4.70;;;4.15;;
41333;SDS011;27078;46.428;6.256;2023-05-15T14:40:19;5.05;;;3.90;;
41333;SDS011;27078;46.428;6.256;2023-05-15T14:42:44;4.40;;;3.40;;
41333;SDS011;27078;46.428;6.256;2023-05-15T14:45:10;5.65;;;3.60;;
41333;SDS011;27078;46.428;6.256;2023-05-15T14:47:35;4.65;;;3.38;;
41333;SDS011;27078;46.428;6.256;2023-05-15T14:50:00;3.75;;;3.10;;
41333;SDS011;27078;46.428;6.256;2023-05-15T14:52:26;4.57;;;3.33;;
41333;SDS011;27078;46.428;6.256;2023-05-15T14:54:51;4.30;;;3.75;;
41333;SDS011;27078;46.428;6.256;2023-05-15T14:57:17;5.68;;;3.70;;
41333;SDS011;27078;46.428;6.256;2023-05-15T14:59:44;4.60;;;3.78;;
41333;SDS011;27078;46.428;6.256;2023-05-15T15:02:11;4.88;;;3.70;;
41333;SDS011;27078;46.428;6.256;2023-05-15T15:04:36;4.13;;;3.70;;
41333;SDS011;27078;46.428;6.256;2023-05-15T15:07:02;4.00;;;2.60;;
41333;SDS011;27078;46.428;6.256;2023-05-15T15:09:28;3.70;;;2.50;;
41333;SDS011;27078;46.428;6.256;2023-05-15T15:11:53;3.65;;;2.58;;
41333;SDS011;27078;46.428;6.256;2023-05-15T15:14:18;3.00;;;2.47;;